Time;durP1;ratioP1;P1;durP2;ratioP2;P2;SDS_P1;SDS_P2;PMS_P1;PMS_P2;Temp;Humidity;BMP_temperature;BMP_pressure;BME280_temperature;BME280_humidity;BME280_pressure;Samples;Min_cycle;Max_cycle;Signal;HPM_P1;HPM_P2
2021/03/16 00:01:03;;;;;;;7.45;4.50;;;;;;;2.55;78.94;96641.16;5073423;28;20025;-72
2021/03/16 00:03:30;;;;;;;10.75;4.57;;;;;;;2.56;78.82;96646.16;5072718;28;20045;-72
2021/03/16 00:05:56;;;;;;;6.28;4.80;;;;;;;2.53;78.64;96649.06;5072961;28;20357;-72
2021/03/16 00:08:23;;;;;;;7.88;4.53;;;;;;;2.53;78.85;96645.69;5072661;28;20516;-72
2021/03/16 00:10:50;;;;;;;6.68;4.43;;;;;;;2.53;78.67;96654.25;5072455;28;20489;-73
2021/03/16 00:13:17;;;;;;;6.43;4.63;;;;;;;2.53;79.05;96662.00;5061051;28;20476;-72
2021/03/16 00:15:43;;;;;;;8.10;4.43;;;;;;;2.54;79.19;96657.63;5072416;28;20045;-73
2021/03/16 00:18:14;;;;;;;7.85;4.43;;;;;;;2.56;79.28;96661.72;5072522;28;20041;-72
2021/03/16 00:20:42;;;;;;;8.15;3.95;;;;;;;2.58;79.01;96666.69;5072809;28;20047;-72
2021/03/16 00:23:09;;;;;;;7.53;4.55;;;;;;;2.56;78.73;96666.88;5071146;28;20037;-72
2021/03/16 00:25:36;;;;;;;7.18;5.15;;;;;;;2.59;79.01;96676.09;5072891;28;20036;-72
2021/03/16 00:28:03;;;;;;;8.70;4.72;;;;;;;2.60;79.14;96670.78;5075518;28;20044;-72
2021/03/16 00:30:29;;;;;;;9.45;4.18;;;;;;;2.61;78.13;96679.34;5075993;28;20033;-73
2021/03/16 00:32:56;;;;;;;9.70;4.55;;;;;;;2.62;78.23;96680.94;5076411;28;20040;-72
2021/03/16 00:35:22;;;;;;;6.85;4.32;;;;;;;2.66;78.36;96687.41;5075816;28;20047;-73
2021/03/16 00:37:49;;;;;;;7.15;4.47;;;;;;;2.65;78.59;96680.63;5075894;28;20044;-73
2021/03/16 00:40:16;;;;;;;8.07;4.55;;;;;;;2.64;78.34;96677.22;5076031;28;20406;-73
2021/03/16 00:42:43;;;;;;;7.45;4.10;;;;;;;2.63;78.11;96682.56;5075830;28;20045;-73
2021/03/16 00:45:10;;;;;;;8.82;4.38;;;;;;;2.59;77.96;96681.28;5075846;28;20036;-73
2021/03/16 00:47:37;;;;;;;7.05;4.78;;;;;;;2.58;78.24;96679.66;5075990;28;20028;-73
2021/03/16 00:50:06;;;;;;;7.40;4.40;;;;;;;2.58;77.92;96677.88;5075703;28;20485;-72
2021/03/16 00:52:32;;;;;;;8.85;4.32;;;;;;;2.57;78.28;96688.41;5075599;28;20519;-72
2021/03/16 00:54:58;;;;;;;9.48;4.15;;;;;;;2.58;78.38;96687.41;5075833;28;20516;-72
2021/03/16 00:57:25;;;;;;;6.15;4.00;;;;;;;2.61;78.76;96687.09;5075761;28;20362;-72
2021/03/16 00:59:52;;;;;;;7.43;4.10;;;;;;;2.64;78.73;96695.34;5075453;28;20031;-72
2021/03/16 01:02:19;;;;;;;8.80;4.45;;;;;;;2.68;78.80;96698.41;5073609;28;20044;-72
2021/03/16 01:04:46;;;;;;;7.72;4.30;;;;;;;2.71;78.92;96702.47;5075328;28;20525;-73
2021/03/16 01:07:12;;;;;;;7.07;4.38;;;;;;;2.71;78.99;96708.47;5075262;28;20039;-73
2021/03/16 01:09:39;;;;;;;7.10;4.13;;;;;;;2.70;78.93;96704.25;5075626;28;20051;-72
2021/03/16 01:12:06;;;;;;;7.82;4.07;;;;;;;2.68;78.45;96716.53;5075207;28;20067;-73
2021/03/16 01:14:33;;;;;;;9.18;3.63;;;;;;;2.66;78.45;96712.50;5075322;28;20066;-73
2021/03/16 01:16:59;;;;;;;7.32;4.10;;;;;;;2.61;78.09;96723.34;5075269;28;20413;-72
2021/03/16 01:19:25;;;;;;;7.43;3.67;;;;;;;2.59;78.32;96720.91;5074866;28;20036;-73
2021/03/16 01:21:52;;;;;;;5.85;3.70;;;;;;;2.51;78.15;96718.31;5075373;28;20373;-73
2021/03/16 01:24:18;;;;;;;7.60;4.03;;;;;;;2.40;77.98;96713.47;5075080;28;20036;-73
2021/03/16 01:26:44;;;;;;;6.40;4.10;;;;;;;2.31;78.06;96711.81;5075510;28;20044;-72
2021/03/16 01:29:10;;;;;;;10.00;3.88;;;;;;;2.31;78.34;96710.06;5075052;28;20036;-73
2021/03/16 01:31:37;;;;;;;9.32;4.00;;;;;;;2.32;78.56;96710.84;5075029;28;20040;-73
2021/03/16 01:34:03;;;;;;;8.48;4.10;;;;;;;2.33;78.64;96710.72;5073479;28;20481;-73
2021/03/16 01:36:30;;;;;;;7.78;4.30;;;;;;;2.36;79.01;96712.16;5075749;28;20032;-73
2021/03/16 01:38:56;;;;;;;8.68;4.03;;;;;;;2.37;78.91;96711.16;5073791;28;20040;-72
2021/03/16 01:41:22;;;;;;;6.93;3.75;;;;;;;2.40;78.82;96718.63;5074978;28;20047;-72
2021/03/16 01:43:48;;;;;;;7.15;4.05;;;;;;;2.41;79.04;96720.25;5074618;28;20494;-72
2021/03/16 01:46:19;;;;;;;8.63;4.60;;;;;;;2.46;79.20;96722.34;5068968;28;20028;-72
2021/03/16 01:48:46;;;;;;;7.95;4.32;;;;;;;2.49;79.34;96717.66;5072539;28;20476;-73
2021/03/16 01:51:13;;;;;;;9.85;4.00;;;;;;;2.54;79.59;96719.78;5065446;28;20041;-73
2021/03/16 01:53:42;;;;;;;5.35;3.92;;;;;;;2.58;79.67;96724.50;5075195;28;20472;-72
2021/03/16 01:56:12;;;;;;;8.15;4.28;;;;;;;2.61;79.65;96723.34;5074422;28;20044;-72
2021/03/16 01:58:40;;;;;;;5.32;3.75;;;;;;;2.64;79.56;96729.00;5074274;28;20472;-72
2021/03/16 02:01:06;;;;;;;10.40;4.45;;;;;;;2.62;79.20;96722.38;5074421;28;20040;-73
2021/03/16 02:03:33;;;;;;;6.05;4.15;;;;;;;2.58;79.41;96726.25;5074033;28;20464;-73
2021/03/16 02:06:04;;;;;;;10.00;4.57;;;;;;;2.50;78.62;96724.47;5073488;28;20044;-73
2021/03/16 02:08:55;;;;;;;9.50;4.82;;;;;;;2.42;78.91;96727.84;5074843;28;20477;-73
2021/03/16 02:11:48;;;;;;;9.55;4.55;;;;;;;2.41;79.00;96722.81;5073039;28;20048;-73
2021/03/16 02:14:30;;;;;;;7.00;4.00;;;;;;;2.39;79.17;96722.19;5074128;28;20066;-72
2021/03/16 02:17:02;;;;;;;9.80;4.53;;;;;;;2.37;79.11;96722.34;5074530;28;20041;-72
2021/03/16 02:19:45;;;;;;;6.63;4.68;;;;;;;2.39;79.66;96715.25;5074324;28;20032;-72
2021/03/16 02:22:12;;;;;;;6.38;4.50;;;;;;;2.37;79.21;96717.19;5065498;28;20039;-73
2021/03/16 02:25:14;;;;;;;5.68;4.28;;;;;;;2.33;79.71;96723.66;5066004;28;20496;-72
2021/03/16 02:28:22;;;;;;;7.13;4.32;;;;;;;2.30;79.98;96713.59;5064029;28;20051;-72
2021/03/16 02:30:49;;;;;;;7.57;4.93;;;;;;;2.31;79.43;96723.00;5059420;28;20032;-73
2021/03/16 02:33:21;;;;;;;6.30;4.30;;;;;;;2.36;79.66;96727.69;5073736;28;20052;-73
2021/03/16 02:35:48;;;;;;;6.93;4.30;;;;;;;2.38;79.67;96731.72;5073919;28;20063;-72
2021/03/16 02:38:17;;;;;;;7.90;4.68;;;;;;;2.42;79.66;96735.63;5073675;28;20041;-72
2021/03/16 02:40:47;;;;;;;6.45;4.35;;;;;;;2.42;79.39;96727.84;5072583;28;20492;-72
2021/03/16 02:43:15;;;;;;;9.13;4.68;;;;;;;2.44;79.57;96736.28;5073525;28;20029;-72
2021/03/16 02:45:44;;;;;;;7.45;4.30;;;;;;;2.47;79.66;96734.34;5073013;28;20055;-72
2021/03/16 02:48:11;;;;;;;8.45;5.72;;;;;;;2.49;79.54;96737.56;5073360;28;20043;-72
2021/03/16 02:50:39;;;;;;;8.48;5.25;;;;;;;2.44;79.55;96746.63;5072950;28;20040;-73
2021/03/16 02:53:05;;;;;;;8.98;4.55;;;;;;;2.38;79.24;96746.44;5073584;28;20492;-73
2021/03/16 02:55:32;;;;;;;8.27;4.95;;;;;;;2.30;79.22;96746.44;5073225;28;20040;-73
2021/03/16 02:57:59;;;;;;;9.52;4.97;;;;;;;2.24;79.29;96747.88;5072419;28;20036;-73
2021/03/16 03:00:26;;;;;;;7.53;4.45;;;;;;;2.22;79.46;96748.00;5073866;28;20032;-72
2021/03/16 03:02:53;;;;;;;6.22;4.60;;;;;;;2.18;79.29;96749.31;5073368;28;20473;-72
2021/03/16 03:05:21;;;;;;;10.90;4.85;;;;;;;2.19;79.42;96756.09;5073380;28;20036;-72
2021/03/16 03:07:48;;;;;;;7.00;4.55;;;;;;;2.20;79.33;96754.31;5072991;28;20032;-73
2021/03/16 03:10:15;;;;;;;7.95;4.10;;;;;;;2.23;79.64;96751.44;5072977;28;20056;-73
2021/03/16 03:12:42;;;;;;;10.10;4.85;;;;;;;2.23;79.54;96748.84;5073846;28;20048;-72
2021/03/16 03:15:09;;;;;;;8.18;4.88;;;;;;;2.24;79.64;96753.03;5065419;28;20051;-72
2021/03/16 03:17:36;;;;;;;6.32;4.35;;;;;;;2.21;79.38;96759.34;5073356;28;20049;-73
2021/03/16 03:20:06;;;;;;;9.75;5.03;;;;;;;2.23;79.74;96757.41;5073255;28;20037;-72
2021/03/16 03:22:42;;;;;;;10.98;4.95;;;;;;;2.21;79.52;96753.38;5071572;28;20528;-72
2021/03/16 03:25:24;;;;;;;10.25;5.07;;;;;;;2.17;79.61;96758.03;5068025;28;20044;-73
2021/03/16 03:27:56;;;;;;;7.45;4.70;;;;;;;2.19;79.61;96760.47;5071622;28;20048;-73
2021/03/16 03:30:24;;;;;;;6.57;4.30;;;;;;;2.16;79.41;96756.44;5073184;28;20048;-73
2021/03/16 03:32:54;;;;;;;7.05;4.45;;;;;;;2.14;79.40;96758.38;5069512;28;20040;-72
2021/03/16 03:35:21;;;;;;;8.85;5.10;;;;;;;2.14;79.58;96760.97;5072867;28;20400;-73
2021/03/16 03:37:48;;;;;;;9.65;5.30;;;;;;;2.12;79.53;96764.66;5072987;28;20037;-72
2021/03/16 03:40:16;;;;;;;9.00;4.90;;;;;;;2.08;79.43;96761.59;5072329;28;20056;-72
2021/03/16 03:42:44;;;;;;;6.45;3.92;;;;;;;2.06;79.16;96760.09;5073032;28;20035;-72
2021/03/16 03:45:12;;;;;;;7.85;4.30;;;;;;;2.02;79.11;96763.00;5072868;28;20040;-73
2021/03/16 03:47:41;;;;;;;5.95;4.03;;;;;;;2.07;79.12;96764.31;5072531;28;20037;-73
2021/03/16 03:50:09;;;;;;;7.55;4.13;;;;;;;2.08;79.16;96771.09;5072712;28;20059;-72
2021/03/16 03:52:36;;;;;;;9.70;4.50;;;;;;;2.08;79.30;96766.75;5057010;28;20408;-72
2021/03/16 03:55:05;;;;;;;10.80;4.70;;;;;;;2.10;79.29;96769.16;5073166;28;20033;-72
2021/03/16 03:57:33;;;;;;;5.35;4.15;;;;;;;2.10;79.19;96766.56;5072726;28;20484;-72
2021/03/16 03:59:59;;;;;;;6.95;4.13;;;;;;;2.05;78.99;96769.63;5072479;28;20044;-72
2021/03/16 04:02:26;;;;;;;7.68;4.50;;;;;;;2.03;78.80;96774.97;5076471;28;20040;-72
2021/03/16 04:04:55;;;;;;;10.88;4.05;;;;;;;2.00;78.86;96774.47;5074731;28;20064;-73
2021/03/16 04:07:22;;;;;;;8.13;3.70;;;;;;;1.99;78.54;96781.41;5075894;28;20036;-72
2021/03/16 04:09:48;;;;;;;7.68;3.80;;;;;;;1.97;78.25;96779.94;5075150;28;20048;-72
2021/03/16 04:12:15;;;;;;;10.48;3.58;;;;;;;1.94;78.48;96777.69;5076329;28;20041;-73
2021/03/16 04:14:41;;;;;;;9.90;3.03;;;;;;;1.93;78.36;96795.00;5076347;28;20048;-72
2021/03/16 04:17:07;;;;;;;4.47;3.30;;;;;;;1.94;78.72;96783.66;5076452;28;20040;-72
2021/03/16 04:19:33;;;;;;;6.63;3.30;;;;;;;1.94;78.46;96790.63;5076816;28;20045;-72
2021/03/16 04:22:00;;;;;;;7.90;3.20;;;;;;;1.95;78.40;96792.22;5074699;28;20503;-73
2021/03/16 04:24:27;;;;;;;9.57;3.22;;;;;;;1.95;78.07;96787.88;5076160;28;20043;-72
2021/03/16 04:26:53;;;;;;;6.82;3.22;;;;;;;1.97;78.31;96803.22;5076007;28;20052;-73
2021/03/16 04:29:19;;;;;;;7.65;2.80;;;;;;;1.98;78.20;96797.09;5076195;28;20157;-72
2021/03/16 04:31:45;;;;;;;7.75;2.90;;;;;;;2.03;78.13;96810.38;5076040;28;20032;-72
2021/03/16 04:34:11;;;;;;;8.63;3.20;;;;;;;2.01;77.86;96807.94;5075923;28;20056;-72
2021/03/16 04:36:38;;;;;;;5.65;2.63;;;;;;;2.00;77.50;96808.91;5074690;28;20041;-72
2021/03/16 04:39:04;;;;;;;8.45;3.00;;;;;;;1.98;77.53;96817.78;5074727;28;20504;-72
2021/03/16 04:41:30;;;;;;;7.43;3.05;;;;;;;1.96;77.62;96819.72;5075657;28;20028;-72
2021/03/16 04:43:57;;;;;;;5.50;3.33;;;;;;;1.93;77.66;96817.44;5076106;28;20040;-72
2021/03/16 04:46:23;;;;;;;7.82;3.28;;;;;;;1.91;77.56;96830.53;5075891;28;20404;-72
2021/03/16 04:48:50;;;;;;;5.78;2.97;;;;;;;1.91;77.35;96822.78;5075811;28;20043;-73
2021/03/16 04:51:16;;;;;;;6.78;2.83;;;;;;;1.89;77.51;96827.28;5075611;28;20060;-72
2021/03/16 04:53:42;;;;;;;10.30;3.25;;;;;;;1.88;77.49;96825.66;5058076;28;20041;-72
2021/03/16 04:56:08;;;;;;;5.90;3.00;;;;;;;1.89;77.41;96829.03;5074002;28;20037;-73
2021/03/16 04:58:34;;;;;;;8.10;3.22;;;;;;;1.89;77.08;96826.47;5075548;28;20473;-73
2021/03/16 05:01:01;;;;;;;6.15;2.78;;;;;;;1.90;77.35;96831.50;5075587;28;20041;-73
2021/03/16 05:03:27;;;;;;;8.18;3.15;;;;;;;1.93;77.32;96828.63;5075652;28;20032;-73
2021/03/16 05:05:53;;;;;;;6.75;3.03;;;;;;;1.97;77.37;96823.91;5075536;28;20409;-73
2021/03/16 05:08:19;;;;;;;9.18;2.33;;;;;;;1.97;77.41;96826.50;5075706;28;20056;-73
2021/03/16 05:10:45;;;;;;;9.48;2.88;;;;;;;1.99;77.50;96832.34;5075169;28;20409;-72
2021/03/16 05:13:12;;;;;;;8.60;3.97;;;;;;;1.99;77.34;96835.72;5073825;28;20039;-72
2021/03/16 05:15:38;;;;;;;11.82;3.20;;;;;;;2.02;77.23;96839.81;5075343;28;20059;-72
2021/03/16 05:18:04;;;;;;;6.32;2.67;;;;;;;2.01;77.15;96835.59;5075323;28;20048;-72
2021/03/16 05:20:30;;;;;;;6.05;2.40;;;;;;;2.02;76.98;96843.19;5074786;28;20480;-73
2021/03/16 05:22:57;;;;;;;6.00;2.30;;;;;;;2.00;76.86;96854.66;5075139;28;20028;-73
2021/03/16 05:25:23;;;;;;;4.95;2.40;;;;;;;1.99;76.82;96845.28;5075137;28;20036;-73
2021/03/16 05:27:49;;;;;;;4.05;2.10;;;;;;;2.00;76.86;96857.25;5073906;28;20037;-72
2021/03/16 05:30:16;;;;;;;6.25;3.00;;;;;;;2.00;76.66;96854.66;5070077;28;20048;-73
2021/03/16 05:32:42;;;;;;;9.57;2.60;;;;;;;2.02;76.56;96861.31;5074952;28;20496;-72
2021/03/16 05:35:09;;;;;;;6.25;2.60;;;;;;;2.03;76.88;96860.31;5075150;28;20044;-73
2021/03/16 05:37:35;;;;;;;5.78;2.40;;;;;;;2.03;76.73;96854.34;5074862;28;20040;-73
2021/03/16 05:40:03;;;;;;;5.80;2.90;;;;;;;2.03;76.84;96873.25;5074581;28;20044;-73
2021/03/16 05:42:30;;;;;;;5.82;2.70;;;;;;;2.02;76.54;96871.66;5074593;28;20469;-73
2021/03/16 05:44:58;;;;;;;5.13;2.50;;;;;;;2.00;76.26;96867.59;5075221;28;20032;-73
2021/03/16 05:47:26;;;;;;;5.10;2.78;;;;;;;1.98;76.04;96872.91;5070984;28;20041;-73
2021/03/16 05:49:56;;;;;;;5.82;2.20;;;;;;;1.98;76.16;96885.06;5074899;28;20473;-73
2021/03/16 05:52:22;;;;;;;4.78;2.75;;;;;;;1.95;76.20;96882.75;5074442;28;20036;-73
2021/03/16 05:54:52;;;;;;;7.43;2.60;;;;;;;1.96;76.19;96894.72;5074845;28;20041;-73
2021/03/16 05:57:19;;;;;;;5.35;2.33;;;;;;;1.93;76.18;96888.09;5073632;28;20511;-74
2021/03/16 05:59:49;;;;;;;5.53;2.30;;;;;;;1.96;76.17;96895.53;5074263;28;20032;-73
2021/03/16 06:02:16;;;;;;;8.32;3.15;;;;;;;1.95;76.39;96893.94;5073185;28;20392;-73
2021/03/16 06:04:43;;;;;;;2.85;2.40;;;;;;;1.96;76.37;96905.09;5070805;28;20041;-72
2021/03/16 06:07:13;;;;;;;6.20;2.45;;;;;;;1.96;76.14;96899.91;5074490;28;20047;-73
2021/03/16 06:09:40;;;;;;;5.82;2.78;;;;;;;1.98;76.33;96898.78;5074650;28;20413;-73
2021/03/16 06:12:08;;;;;;;6.25;3.03;;;;;;;2.00;76.18;96907.22;5073523;28;20053;-73
2021/03/16 06:14:36;;;;;;;4.38;2.40;;;;;;;2.00;76.38;96914.16;5073142;28;20041;-72
2021/03/16 06:17:04;;;;;;;7.28;3.13;;;;;;;2.03;76.35;96911.25;5073789;28;20060;-73
2021/03/16 06:19:33;;;;;;;5.15;2.92;;;;;;;2.07;76.15;96912.56;5073869;28;20036;-73
2021/03/16 06:22:04;;;;;;;10.25;3.67;;;;;;;2.13;78.08;96911.16;5067718;28;20052;-73
2021/03/16 06:24:31;;;;;;;7.43;3.38;;;;;;;2.15;76.37;96912.63;5073070;28;20041;-72
2021/03/16 06:26:57;;;;;;;10.23;2.90;;;;;;;2.16;76.17;96916.03;5073683;28;20044;-73
2021/03/16 06:29:24;;;;;;;10.68;3.05;;;;;;;2.16;76.13;96923.78;5074169;28;20469;-72
2021/03/16 06:31:51;;;;;;;6.93;2.97;;;;;;;2.15;76.10;96928.16;5073804;28;20029;-72
2021/03/16 06:34:23;;;;;;;9.15;3.08;;;;;;;2.13;76.01;96934.44;5072441;28;20044;-73
2021/03/16 06:37:00;;;;;;;5.75;3.05;;;;;;;2.13;76.09;96937.03;5065872;28;20036;-73
2021/03/16 06:39:27;;;;;;;7.80;3.45;;;;;;;2.14;76.22;96936.06;5066784;28;20388;-72
2021/03/16 06:41:54;;;;;;;23.00;12.90;;;;;;;2.14;76.10;96938.66;5073863;28;20469;-72
2021/03/16 06:44:22;;;;;;;10.63;6.18;;;;;;;2.15;76.00;96938.50;5073552;28;20036;-73
2021/03/16 06:46:56;;;;;;;10.48;5.10;;;;;;;2.19;76.41;96931.25;5073421;28;20342;-73
2021/03/16 06:49:25;;;;;;;7.22;4.30;;;;;;;2.24;76.19;96949.72;5073551;28;20037;-72
2021/03/16 06:51:54;;;;;;;8.30;3.97;;;;;;;2.25;76.05;96946.16;5073309;28;20040;-74
2021/03/16 06:54:24;;;;;;;9.65;4.60;;;;;;;2.29;76.02;96951.84;5073692;28;20416;-72
2021/03/16 06:56:54;;;;;;;5.22;3.38;;;;;;;2.30;75.74;96962.03;5070481;28;20039;-73
2021/03/16 06:59:25;;;;;;;6.78;3.85;;;;;;;2.32;76.07;96961.91;5073543;28;20036;-73
2021/03/16 07:01:52;;;;;;;7.43;3.22;;;;;;;2.36;76.05;96958.84;5072561;28;20032;-72
2021/03/16 07:04:23;;;;;;;4.80;2.53;;;;;;;2.97;89.81;96958.78;5073210;28;20483;-73
2021/03/16 07:06:49;;;;;;;9.88;2.92;;;;;;;3.83;83.64;96965.41;5072306;28;20044;-72
2021/03/16 07:09:18;;;;;;;19.13;3.35;;;;;;;4.45;79.59;96965.66;5073345;28;20079;-72
2021/03/16 07:11:55;;;;;;;8.18;3.67;;;;;;;4.65;75.79;96966.06;5072784;28;20052;-73
2021/03/16 07:14:21;;;;;;;10.65;3.45;;;;;;;4.34;74.16;96965.19;5073777;28;20361;-73
2021/03/16 07:16:49;;;;;;;7.28;3.83;;;;;;;3.93;73.10;96973.84;5073223;28;20479;-73
2021/03/16 07:19:17;;;;;;;5.93;3.60;;;;;;;3.59;73.71;96982.59;5073166;28;20044;-73
2021/03/16 07:21:56;;;;;;;8.23;3.33;;;;;;;3.36;73.02;96979.78;5073013;28;20460;-73
2021/03/16 07:24:32;;;;;;;7.70;3.58;;;;;;;3.22;73.29;96985.59;5063496;28;20028;-73
2021/03/16 07:26:59;;;;;;;16.25;5.53;;;;;;;3.17;74.56;96985.22;5073004;28;20485;-73
2021/03/16 07:29:26;;;;;;;7.53;3.75;;;;;;;3.12;74.67;96993.47;5066643;28;20048;-73
2021/03/16 07:31:52;;;;;;;10.07;4.05;;;;;;;3.07;74.49;96994.91;5070150;28;20049;-73
2021/03/16 07:34:19;;;;;;;8.18;3.20;;;;;;;2.97;74.18;96995.06;5072663;28;20049;-73
2021/03/16 07:36:47;;;;;;;8.68;4.22;;;;;;;2.89;74.28;97000.19;5075300;28;20044;-73
2021/03/16 07:39:22;;;;;;;8.35;3.80;;;;;;;2.88;74.26;97012.34;5077042;28;20046;-73
2021/03/16 07:41:49;;;;;;;8.10;2.97;;;;;;;2.88;74.69;97011.50;5075145;28;20032;-73
2021/03/16 07:44:16;;;;;;;10.32;3.25;;;;;;;2.87;74.53;97010.72;5075985;28;20048;-73
2021/03/16 07:46:53;;;;;;;8.15;2.75;;;;;;;2.89;73.96;97021.72;5070483;28;20127;-73
2021/03/16 07:49:31;;;;;;;6.60;4.20;;;;;;;2.87;73.38;97017.69;5076613;28;20381;-73
2021/03/16 07:51:58;;;;;;;5.40;2.63;;;;;;;2.85;74.04;97023.81;5076752;28;20043;-73
2021/03/16 07:54:39;;;;;;;7.93;3.58;;;;;;;2.86;72.75;97027.25;5076692;28;20037;-73
2021/03/16 07:57:06;;;;;;;7.20;4.32;;;;;;;2.91;73.72;97031.94;5072402;28;20040;-73
2021/03/16 07:59:37;;;;;;;8.95;3.70;;;;;;;2.94;73.63;97029.88;5076458;28;20049;-73
2021/03/16 08:02:04;;;;;;;8.90;3.20;;;;;;;3.00;73.94;97039.63;5076326;28;20029;-73
2021/03/16 08:04:38;;;;;;;8.90;3.83;;;;;;;3.00;73.45;97034.44;5073298;28;20033;-73
2021/03/16 08:07:08;;;;;;;12.80;3.60;;;;;;;3.03;73.40;97031.50;5076293;28;20056;-73
2021/03/16 08:09:51;;;;;;;7.15;2.80;;;;;;;3.13;72.62;97027.97;5076594;28;20048;-73
2021/03/16 08:12:28;;;;;;;8.02;3.70;;;;;;;3.23;72.27;97024.31;5076360;28;20040;-73
2021/03/16 08:14:55;;;;;;;5.57;3.22;;;;;;;3.33;73.40;97037.13;5076229;28;20039;-73
2021/03/16 08:17:32;;;;;;;9.85;2.85;;;;;;;3.39;71.45;97033.91;5075207;28;20040;-73
2021/03/16 08:19:59;;;;;;;8.43;3.17;;;;;;;3.42;72.60;97035.34;5073786;28;20041;-73
2021/03/16 08:22:27;;;;;;;22.90;11.43;;;;;;;3.49;72.44;97044.16;5072185;28;20028;-73
2021/03/16 08:25:05;;;;;;;7.95;3.90;;;;;;;3.50;70.57;97032.78;5076211;28;20036;-73
2021/03/16 08:27:37;;;;;;;5.82;2.97;;;;;;;3.55;71.67;97047.88;5076168;28;20044;-73
2021/03/16 08:30:05;;;;;;;12.60;3.53;;;;;;;3.59;71.95;97041.41;5075988;28;20036;-73
2021/03/16 08:32:33;;;;;;;7.40;2.75;;;;;;;3.63;72.14;97050.47;5075618;28;20028;-73
2021/03/16 08:35:00;;;;;;;4.47;2.78;;;;;;;3.72;71.93;97053.94;5075738;28;20033;-73
2021/03/16 08:37:31;;;;;;;14.25;3.65;;;;;;;3.77;71.54;97049.88;5071606;28;20037;-73
2021/03/16 08:39:57;;;;;;;10.05;3.20;;;;;;;3.82;71.83;97042.44;5041709;28;20036;-73
2021/03/16 08:42:26;;;;;;;9.07;2.97;;;;;;;3.86;71.59;97051.53;5074540;28;20045;-73
2021/03/16 08:44:54;;;;;;;5.75;3.00;;;;;;;3.87;71.23;97057.50;5075874;28;20043;-73
2021/03/16 08:47:24;;;;;;;7.28;2.88;;;;;;;3.89;71.12;97052.16;5074313;28;20032;-73
2021/03/16 08:49:53;;;;;;;7.57;4.13;;;;;;;3.90;71.09;97054.59;5075308;28;20029;-73
2021/03/16 08:52:22;;;;;;;11.38;4.32;;;;;;;3.88;70.67;97061.72;5075763;28;20052;-73
2021/03/16 08:54:50;;;;;;;8.90;3.05;;;;;;;3.82;70.47;97054.56;5071329;28;20047;-73
2021/03/16 08:57:31;;;;;;;8.50;3.35;;;;;;;3.79;70.14;97060.91;5075508;28;20037;-73
2021/03/16 08:59:59;;;;;;;8.65;3.20;;;;;;;3.77;70.67;97062.03;5075132;28;20051;-73
2021/03/16 09:02:36;;;;;;;7.88;3.05;;;;;;;3.73;70.50;97065.91;5075554;28;20040;-72
2021/03/16 09:05:03;;;;;;;9.15;3.60;;;;;;;3.72;70.68;97065.13;5075207;28;20033;-72
2021/03/16 09:07:36;;;;;;;8.93;3.33;;;;;;;3.72;70.84;97064.31;5074231;28;20041;-72
2021/03/16 09:10:05;;;;;;;10.93;3.50;;;;;;;3.75;70.79;97061.38;5074853;28;20052;-72
2021/03/16 09:12:32;;;;;;;10.32;3.30;;;;;;;3.76;70.58;97065.59;5074836;28;20051;-73
2021/03/16 09:15:16;;;;;;;6.68;2.97;;;;;;;3.72;69.15;97064.31;5074948;28;20036;-72
2021/03/16 09:17:45;;;;;;;7.38;3.17;;;;;;;3.68;69.94;97074.19;5075508;28;20051;-72
2021/03/16 09:20:34;;;;;;;6.60;2.63;;;;;;;3.61;70.01;97075.75;5074794;28;20036;-72
2021/03/16 09:23:06;;;;;;;5.38;3.60;;;;;;;3.57;70.37;97075.28;5060605;28;20468;-72
2021/03/16 09:25:38;;;;;;;7.20;3.00;;;;;;;3.53;70.20;97089.53;5074829;28;20025;-72
2021/03/16 09:28:08;;;;;;;9.25;2.75;;;;;;;3.49;70.37;97085.63;5074769;28;20024;-72
2021/03/16 09:30:40;;;;;;;9.95;3.35;;;;;;;3.50;70.85;97089.03;5075230;28;20389;-72
2021/03/16 09:33:10;;;;;;;8.73;3.05;;;;;;;3.53;70.86;97101.66;5074743;28;20480;-74
2021/03/16 09:35:37;;;;;;;10.73;3.58;;;;;;;3.53;71.02;97096.50;5074567;28;20036;-73
2021/03/16 09:38:05;;;;;;;5.53;3.05;;;;;;;3.52;71.09;97098.28;5075152;28;20377;-72
2021/03/16 09:40:36;;;;;;;9.95;4.38;;;;;;;3.53;71.51;97097.31;5074762;28;20468;-72
2021/03/16 09:43:14;;;;;;;6.20;3.30;;;;;;;3.54;71.30;97100.72;5074552;28;20040;-73
2021/03/16 09:45:50;;;;;;;9.93;4.50;;;;;;;3.55;72.43;97103.16;5060540;28;20040;-73
2021/03/16 09:48:18;;;;;;;12.57;6.22;;;;;;;3.64;71.83;97101.41;5074375;28;20036;-73
2021/03/16 09:50:45;;;;;;;8.38;4.18;;;;;;;3.72;71.28;97091.06;5074237;28;20388;-73
2021/03/16 09:53:16;;;;;;;7.50;4.00;;;;;;;3.88;71.78;97089.44;5074236;28;20040;-73
2021/03/16 09:55:43;;;;;;;9.38;3.10;;;;;;;3.95;70.82;97095.63;5074593;28;20032;-73
2021/03/16 09:58:22;;;;;;;8.13;3.47;;;;;;;4.00;69.71;97096.78;5073905;28;20039;-73
2021/03/16 10:00:50;;;;;;;8.75;3.25;;;;;;;4.02;70.13;97096.63;5074135;28;20453;-73
2021/03/16 10:03:18;;;;;;;8.90;3.60;;;;;;;4.00;69.96;97101.16;5074520;28;20100;-73
2021/03/16 10:05:45;;;;;;;11.02;3.58;;;;;;;4.03;70.14;97091.28;5073831;28;20052;-72
2021/03/16 10:08:26;;;;;;;11.63;4.60;;;;;;;4.13;69.91;97098.88;5073795;28;20074;-72
2021/03/16 10:10:54;;;;;;;11.63;3.13;;;;;;;4.17;69.98;97095.00;5061955;28;20052;-72
2021/03/16 10:13:31;;;;;;;6.40;3.30;;;;;;;4.24;69.33;97093.41;5073648;28;20032;-72
2021/03/16 10:16:05;;;;;;;11.10;3.95;;;;;;;4.32;69.97;97100.34;5073325;28;20048;-72
2021/03/16 10:18:37;;;;;;;10.55;3.80;;;;;;;4.40;69.18;97094.38;5074157;28;20032;-72
2021/03/16 10:21:04;;;;;;;8.38;3.17;;;;;;;4.44;69.60;97096.47;5073769;28;20392;-73
2021/03/16 10:23:31;;;;;;;10.40;3.17;;;;;;;4.50;69.10;97102.00;5074021;28;20036;-73
2021/03/16 10:26:08;;;;;;;8.48;3.30;;;;;;;4.51;69.26;97104.41;5073468;28;20400;-73
2021/03/16 10:28:39;;;;;;;13.10;3.50;;;;;;;4.59;69.01;97101.81;5074002;28;20370;-72
2021/03/16 10:31:15;;;;;;;7.05;3.28;;;;;;;4.64;67.94;97098.72;5074614;28;20041;-72
2021/03/16 10:33:42;;;;;;;9.38;3.78;;;;;;;4.72;68.72;97098.72;5073561;28;20036;-73
2021/03/16 10:36:09;;;;;;;5.07;3.13;;;;;;;4.79;68.64;97102.28;5073652;28;20043;-73
2021/03/16 10:38:36;;;;;;;7.03;2.80;;;;;;;4.75;67.96;97098.41;5073657;28;20051;-73
2021/03/16 10:41:03;;;;;;;7.25;2.90;;;;;;;4.72;68.05;97098.72;5073482;28;20384;-74
2021/03/16 10:43:43;;;;;;;7.50;3.13;;;;;;;4.68;67.56;97092.22;5067069;28;20044;-72
2021/03/16 10:46:10;;;;;;;6.22;3.55;;;;;;;4.63;67.60;97092.72;5073197;28;20036;-72
2021/03/16 10:48:36;;;;;;;10.63;3.40;;;;;;;4.60;67.28;97095.66;5073606;28;20032;-72
2021/03/16 10:51:04;;;;;;;6.63;3.13;;;;;;;4.65;67.90;97088.16;5071930;28;20029;-72
2021/03/16 10:53:30;;;;;;;8.68;2.92;;;;;;;4.74;67.79;97091.56;5073137;28;20036;-72
2021/03/16 10:55:57;;;;;;;6.78;3.10;;;;;;;4.80;67.28;97084.91;5073284;28;20036;-72
2021/03/16 10:58:23;;;;;;;9.73;2.90;;;;;;;4.81;66.99;97086.53;5072903;28;20081;-72
2021/03/16 11:00:49;;;;;;;7.65;3.20;;;;;;;4.81;67.24;97086.53;5072803;28;20054;-72
2021/03/16 11:03:16;;;;;;;8.52;3.17;;;;;;;4.80;66.76;97095.31;5073634;28;20043;-71
2021/03/16 11:05:42;;;;;;;6.43;3.15;;;;;;;4.75;66.36;97098.41;5073279;28;20039;-72
2021/03/16 11:08:10;;;;;;;5.97;2.75;;;;;;;4.77;66.36;97095.66;5072569;28;20412;-72
2021/03/16 11:10:36;;;;;;;7.07;2.95;;;;;;;4.76;66.18;97091.41;5072624;28;20048;-72
2021/03/16 11:13:02;;;;;;;5.20;2.67;;;;;;;4.78;66.06;97094.66;5072767;28;20041;-72
2021/03/16 11:15:29;;;;;;;7.82;2.70;;;;;;;4.72;65.93;97093.50;5072656;28;20052;-73
2021/03/16 11:17:55;;;;;;;8.13;2.83;;;;;;;4.73;65.76;97091.75;5072581;28;20064;-72
2021/03/16 11:20:21;;;;;;;5.57;2.53;;;;;;;4.71;65.84;97091.91;5072782;28;20036;-72
2021/03/16 11:22:48;;;;;;;6.00;2.58;;;;;;;4.68;65.51;97092.22;5072719;28;20033;-72
2021/03/16 11:25:14;;;;;;;7.57;2.88;;;;;;;4.65;65.64;97089.97;5073081;28;20040;-72
2021/03/16 11:27:41;;;;;;;5.38;2.33;;;;;;;4.61;65.66;97102.47;5072518;28;20036;-72
2021/03/16 11:30:08;;;;;;;7.28;2.50;;;;;;;4.59;65.66;97101.81;5072726;28;20081;-72
2021/03/16 11:32:35;;;;;;;9.40;3.40;;;;;;;4.59;65.55;97101.81;5072665;28;20056;-72
2021/03/16 11:35:03;;;;;;;7.60;2.50;;;;;;;4.57;65.32;97105.56;5072913;28;20036;-72
2021/03/16 11:37:29;;;;;;;8.13;2.75;;;;;;;4.56;65.50;97102.16;5073114;28;20047;-72
2021/03/16 11:39:56;;;;;;;7.35;2.65;;;;;;;4.55;65.42;97102.31;5072700;28;20066;-72
2021/03/16 11:42:22;;;;;;;5.53;2.50;;;;;;;4.48;65.23;97108.16;5072591;28;20036;-72
2021/03/16 11:44:49;;;;;;;7.80;2.50;;;;;;;4.41;65.41;97104.59;5072717;28;20040;-72
2021/03/16 11:47:22;;;;;;;7.07;2.57;;;;;;;4.36;65.47;97100.84;5072485;28;20048;-72
2021/03/16 11:49:48;;;;;;;7.35;3.08;;;;;;;4.32;65.55;97104.75;5072734;28;20032;-72